sensor_id;sensor_type;location;lat;lon;timestamp;pressure;altitude;pressure_sealevel;temperature;humidity
30073;BME280;16897;52.422;13.678;2023-07-20T00:01:44;100628.22;;;21.95;38.98
30073;BME280;16897;52.422;13.678;2023-07-20T00:05:46;100669.53;;;22.16;39.00
30073;BME280;16897;52.422;13.678;2023-07-20T00:09:47;100666.38;;;22.12;39.54
30073;BME280;16897;52.422;13.678;2023-07-20T00:13:52;100663.16;;;22.08;39.39
30073;BME280;16897;52.422;13.678;2023-07-20T00:17:54;100660.66;;;21.99;39.62
30073;BME280;16897;52.422;13.678;2023-07-20T00:21:56;100677.44;;;21.99;39.33
30073;BME280;16897;52.422;13.678;2023-07-20T00:25:57;100675.28;;;22.03;39.67
30073;BME280;16897;52.422;13.678;2023-07-20T00:29:59;100631.97;;;21.76;39.46
30073;BME280;16897;52.422;13.678;2023-07-20T00:34:00;100678.75;;;21.95;39.36
30073;BME280;16897;52.422;13.678;2023-07-20T00:38:02;100677.09;;;21.94;39.58
30073;BME280;16897;52.422;13.678;2023-07-20T00:42:04;100661.75;;;21.80;39.86
30073;BME280;16897;52.422;13.678;2023-07-20T00:46:05;100665.88;;;21.74;39.48
30073;BME280;16897;52.422;13.678;2023-07-20T00:50:07;100667.53;;;21.75;39.86
30073;BME280;16897;52.422;13.678;2023-07-20T00:54:09;100665.03;;;21.74;40.05
30073;BME280;16897;52.422;13.678;2023-07-20T00:58:11;100642.72;;;21.58;39.68
30073;BME280;16897;52.422;13.678;2023-07-20T01:02:12;100673.69;;;21.76;40.04
30073;BME280;16897;52.422;13.678;2023-07-20T01:10:40;100669.31;;;21.67;40.12
30073;BME280;16897;52.422;13.678;2023-07-20T01:14:44;100676.63;;;21.64;40.04
30073;BME280;16897;52.422;13.678;2023-07-20T01:18:46;100657.78;;;21.50;40.32
30073;BME280;16897;52.422;13.678;2023-07-20T01:31:45;100677.31;;;21.40;40.17
30073;BME280;16897;52.422;13.678;2023-07-20T01:35:53;100684.03;;;21.35;40.07
30073;BME280;16897;52.422;13.678;2023-07-20T01:39:56;100671.03;;;21.24;40.57
30073;BME280;16897;52.422;13.678;2023-07-20T01:43:58;100683.47;;;21.23;40.47
30073;BME280;16897;52.422;13.678;2023-07-20T01:48:03;100664.00;;;21.14;40.63
30073;BME280;16897;52.422;13.678;2023-07-20T01:52:05;100685.13;;;21.24;40.74
30073;BME280;16897;52.422;13.678;2023-07-20T01:56:07;100677.41;;;21.13;40.77
30073;BME280;16897;52.422;13.678;2023-07-20T02:00:11;100667.78;;;21.12;40.55
30073;BME280;16897;52.422;13.678;2023-07-20T02:04:16;100663.06;;;21.06;40.79
30073;BME280;16897;52.422;13.678;2023-07-20T02:08:17;100683.03;;;21.10;40.67
30073;BME280;16897;52.422;13.678;2023-07-20T02:12:19;100652.66;;;20.86;40.77
30073;BME280;16897;52.422;13.678;2023-07-20T02:16:22;100672.50;;;21.00;40.95
30073;BME280;16897;52.422;13.678;2023-07-20T02:20:23;100668.50;;;20.96;41.01
30073;BME280;16897;52.422;13.678;2023-07-20T02:24:25;100663.31;;;20.94;40.87
30073;BME280;16897;52.422;13.678;2023-07-20T02:28:27;100672.81;;;20.97;41.09
30073;BME280;16897;52.422;13.678;2023-07-20T02:32:30;100673.63;;;20.97;41.40
30073;BME280;16897;52.422;13.678;2023-07-20T02:36:34;100665.28;;;20.92;41.39
30073;BME280;16897;52.422;13.678;2023-07-20T02:40:35;100652.06;;;20.74;41.06
30073;BME280;16897;52.422;13.678;2023-07-20T02:44:37;100654.53;;;20.76;41.04
30073;BME280;16897;52.422;13.678;2023-07-20T02:48:39;100667.38;;;20.81;41.15
30073;BME280;16897;52.422;13.678;2023-07-20T02:52:40;100674.81;;;20.77;41.36
30073;BME280;16897;52.422;13.678;2023-07-20T02:56:41;100686.94;;;20.80;41.47
30073;BME280;16897;52.422;13.678;2023-07-20T03:00:43;100664.56;;;20.64;41.30
30073;BME280;16897;52.422;13.678;2023-07-20T03:04:45;100647.47;;;20.49;41.48
30073;BME280;16897;52.422;13.678;2023-07-20T03:08:47;100655.34;;;20.41;41.41
30073;BME280;16897;52.422;13.678;2023-07-20T03:12:49;100694.75;;;20.63;41.30
30073;BME280;16897;52.422;13.678;2023-07-20T03:16:51;100691.03;;;20.56;41.44
30073;BME280;16897;52.422;13.678;2023-07-20T03:20:53;100711.94;;;20.59;41.51
30073;BME280;16897;52.422;13.678;2023-07-20T03:24:54;100710.41;;;20.57;41.88
30073;BME280;16897;52.422;13.678;2023-07-20T03:28:56;100690.91;;;20.48;41.71
30073;BME280;16897;52.422;13.678;2023-07-20T03:32:57;100697.03;;;20.48;42.02
30073;BME280;16897;52.422;13.678;2023-07-20T03:36:59;100702.50;;;20.47;41.74
30073;BME280;16897;52.422;13.678;2023-07-20T03:41:02;100701.81;;;20.45;41.96
30073;BME280;16897;52.422;13.678;2023-07-20T03:45:05;100700.44;;;20.41;42.09
30073;BME280;16897;52.422;13.678;2023-07-20T03:49:07;100695.03;;;20.32;42.20
30073;BME280;16897;52.422;13.678;2023-07-20T03:53:10;100709.81;;;20.35;41.84
30073;BME280;16897;52.422;13.678;2023-07-20T03:57:12;100675.47;;;20.16;41.86
30073;BME280;16897;52.422;13.678;2023-07-20T04:01:13;100709.13;;;20.33;42.04
30073;BME280;16897;52.422;13.678;2023-07-20T04:05:16;100721.97;;;20.38;42.00
30073;BME280;16897;52.422;13.678;2023-07-20T04:09:18;100728.25;;;20.37;42.30
30073;BME280;16897;52.422;13.678;2023-07-20T04:13:19;100699.28;;;20.25;42.31
30073;BME280;16897;52.422;13.678;2023-07-20T04:17:40;100721.53;;;20.42;42.24
30073;BME280;16897;52.422;13.678;2023-07-20T04:21:42;100720.13;;;20.38;42.46
30073;BME280;16897;52.422;13.678;2023-07-20T04:25:43;100723.34;;;20.42;42.15
30073;BME280;16897;52.422;13.678;2023-07-20T04:29:47;100686.31;;;20.22;42.50
30073;BME280;16897;52.422;13.678;2023-07-20T04:33:49;100717.03;;;20.43;42.28
30073;BME280;16897;52.422;13.678;2023-07-20T04:37:52;100708.00;;;20.36;42.47
30073;BME280;16897;52.422;13.678;2023-07-20T04:41:57;100702.59;;;20.27;42.51
30073;BME280;16897;52.422;13.678;2023-07-20T04:45:59;100714.44;;;20.33;42.69
30073;BME280;16897;52.422;13.678;2023-07-20T04:50:01;100712.34;;;20.37;42.58
30073;BME280;16897;52.422;13.678;2023-07-20T04:54:03;100732.28;;;20.41;42.60
30073;BME280;16897;52.422;13.678;2023-07-20T04:58:09;100723.81;;;20.27;42.59
30073;BME280;16897;52.422;13.678;2023-07-20T05:02:12;100729.13;;;20.27;42.81
30073;BME280;16897;52.422;13.678;2023-07-20T05:06:14;100730.25;;;20.25;42.81
30073;BME280;16897;52.422;13.678;2023-07-20T05:10:16;100748.53;;;20.28;42.92
30073;BME280;16897;52.422;13.678;2023-07-20T05:14:17;100720.97;;;20.11;42.96
30073;BME280;16897;52.422;13.678;2023-07-20T05:18:21;100740.03;;;20.24;42.91
30073;BME280;16897;52.422;13.678;2023-07-20T05:22:24;100729.72;;;20.21;42.81
30073;BME280;16897;52.422;13.678;2023-07-20T05:26:26;100728.19;;;20.19;42.89
30073;BME280;16897;52.422;13.678;2023-07-20T05:30:27;100737.47;;;20.32;42.80
30073;BME280;16897;52.422;13.678;2023-07-20T05:34:30;100715.78;;;20.19;43.22
30073;BME280;16897;52.422;13.678;2023-07-20T05:38:32;100743.03;;;20.39;43.08
30073;BME280;16897;52.422;13.678;2023-07-20T05:42:34;100736.34;;;20.35;43.13
30073;BME280;16897;52.422;13.678;2023-07-20T05:46:36;100744.69;;;20.40;43.30
30073;BME280;16897;52.422;13.678;2023-07-20T05:50:41;100746.91;;;20.45;43.18
30073;BME280;16897;52.422;13.678;2023-07-20T05:54:43;100750.25;;;20.47;43.25
30073;BME280;16897;52.422;13.678;2023-07-20T05:58:45;100736.88;;;20.39;43.14
30073;BME280;16897;52.422;13.678;2023-07-20T06:02:47;100742.88;;;20.41;43.39
30073;BME280;16897;52.422;13.678;2023-07-20T06:06:49;100757.75;;;20.51;43.47
30073;BME280;16897;52.422;13.678;2023-07-20T06:10:50;100746.34;;;20.41;43.42
30073;BME280;16897;52.422;13.678;2023-07-20T06:14:54;100761.97;;;20.54;43.28
30073;BME280;16897;52.422;13.678;2023-07-20T06:18:56;100752.34;;;20.43;43.49
30073;BME280;16897;52.422;13.678;2023-07-20T06:22:58;100769.19;;;20.52;43.55
30073;BME280;16897;52.422;13.678;2023-07-20T06:27:00;100760.72;;;20.48;43.87
30073;BME280;16897;52.422;13.678;2023-07-20T06:31:02;100780.09;;;20.59;43.69
30073;BME280;16897;52.422;13.678;2023-07-20T06:35:05;100781.50;;;20.53;43.84
30073;BME280;16897;52.422;13.678;2023-07-20T06:39:06;100763.53;;;20.47;43.74
30073;BME280;16897;52.422;13.678;2023-07-20T06:43:08;100789.28;;;20.64;43.86
30073;BME280;16897;52.422;13.678;2023-07-20T06:47:09;100788.28;;;20.65;43.75
30073;BME280;16897;52.422;13.678;2023-07-20T06:51:11;100785.19;;;20.70;43.85
30073;BME280;16897;52.422;13.678;2023-07-20T06:55:12;100779.38;;;20.66;43.75
30073;BME280;16897;52.422;13.678;2023-07-20T06:59:14;100783.53;;;20.69;43.59
30073;BME280;16897;52.422;13.678;2023-07-20T07:03:15;100766.97;;;20.57;43.66
30073;BME280;16897;52.422;13.678;2023-07-20T07:07:17;100768.97;;;20.55;43.91
30073;BME280;16897;52.422;13.678;2023-07-20T07:11:21;100805.16;;;20.74;43.73
30073;BME280;16897;52.422;13.678;2023-07-20T07:15:22;100802.34;;;20.75;44.03
30073;BME280;16897;52.422;13.678;2023-07-20T07:19:24;100777.00;;;20.63;43.88
30073;BME280;16897;52.422;13.678;2023-07-20T07:23:26;100766.66;;;20.60;44.13
30073;BME280;16897;52.422;13.678;2023-07-20T07:27:28;100788.06;;;20.76;43.94
30073;BME280;16897;52.422;13.678;2023-07-20T07:31:29;100804.47;;;20.90;44.03
30073;BME280;16897;52.422;13.678;2023-07-20T07:35:32;100807.22;;;20.98;44.10
30073;BME280;16897;52.422;13.678;2023-07-20T07:39:34;100825.06;;;21.06;43.96
30073;BME280;16897;52.422;13.678;2023-07-20T07:43:35;100812.63;;;21.06;43.92
30073;BME280;16897;52.422;13.678;2023-07-20T07:47:38;100813.56;;;21.15;44.20
30073;BME280;16897;52.422;13.678;2023-07-20T07:51:40;100819.47;;;21.27;44.07
30073;BME280;16897;52.422;13.678;2023-07-20T07:55:41;100807.50;;;21.40;44.47
30073;BME280;16897;52.422;13.678;2023-07-20T07:59:43;100806.66;;;21.58;44.25
30073;BME280;16897;52.422;13.678;2023-07-20T08:03:45;100795.91;;;21.68;44.10
30073;BME280;16897;52.422;13.678;2023-07-20T08:07:48;100798.53;;;21.85;44.39
30073;BME280;16897;52.422;13.678;2023-07-20T08:11:50;100788.88;;;21.84;44.26
30073;BME280;16897;52.422;13.678;2023-07-20T08:15:52;100801.44;;;22.00;44.30
30073;BME280;16897;52.422;13.678;2023-07-20T08:19:54;100784.34;;;22.03;44.06
30073;BME280;16897;52.422;13.678;2023-07-20T08:23:56;100823.41;;;22.28;44.14
30073;BME280;16897;52.422;13.678;2023-07-20T08:27:58;100811.31;;;22.34;44.28
30073;BME280;16897;52.422;13.678;2023-07-20T08:32:02;100817.53;;;22.51;44.36
30073;BME280;16897;52.422;13.678;2023-07-20T08:36:05;100818.06;;;22.71;44.19
30073;BME280;16897;52.422;13.678;2023-07-20T08:40:07;100813.66;;;22.88;44.14
30073;BME280;16897;52.422;13.678;2023-07-20T08:44:10;100821.69;;;22.96;44.43
30073;BME280;16897;52.422;13.678;2023-07-20T08:48:12;100814.84;;;22.93;44.08
30073;BME280;16897;52.422;13.678;2023-07-20T08:52:14;100819.97;;;22.95;44.15
30073;BME280;16897;52.422;13.678;2023-07-20T08:56:16;100833.19;;;22.96;44.06
30073;BME280;16897;52.422;13.678;2023-07-20T09:00:20;100831.84;;;23.01;44.20
30073;BME280;16897;52.422;13.678;2023-07-20T09:04:22;100827.53;;;23.00;44.33
30073;BME280;16897;52.422;13.678;2023-07-20T09:08:23;100817.31;;;22.95;44.30
30073;BME280;16897;52.422;13.678;2023-07-20T09:12:25;100820.91;;;23.12;44.19
30073;BME280;16897;52.422;13.678;2023-07-20T09:16:27;100820.38;;;23.16;44.19
30073;BME280;16897;52.422;13.678;2023-07-20T09:20:34;100821.56;;;23.30;43.87
30073;BME280;16897;52.422;13.678;2023-07-20T09:24:37;100833.91;;;23.39;43.91
30073;BME280;16897;52.422;13.678;2023-07-20T09:28:43;100820.75;;;23.38;44.10
30073;BME280;16897;52.422;13.678;2023-07-20T09:32:47;100818.75;;;23.32;43.65
30073;BME280;16897;52.422;13.678;2023-07-20T09:36:49;100808.91;;;23.24;43.87
30073;BME280;16897;52.422;13.678;2023-07-20T09:40:50;100824.41;;;23.37;43.99
30073;BME280;16897;52.422;13.678;2023-07-20T09:44:52;100829.59;;;23.47;43.77
30073;BME280;16897;52.422;13.678;2023-07-20T09:48:54;100822.75;;;23.52;44.02
30073;BME280;16897;52.422;13.678;2023-07-20T09:52:56;100808.06;;;23.64;43.67
30073;BME280;16897;52.422;13.678;2023-07-20T09:56:58;100812.59;;;23.72;43.98
30073;BME280;16897;52.422;13.678;2023-07-20T10:01:00;100813.94;;;23.76;43.47
30073;BME280;16897;52.422;13.678;2023-07-20T10:05:05;100827.59;;;23.81;43.33
30073;BME280;16897;52.422;13.678;2023-07-20T10:09:06;100822.44;;;23.80;43.47
30073;BME280;16897;52.422;13.678;2023-07-20T10:13:17;100809.94;;;23.80;43.82
30073;BME280;16897;52.422;13.678;2023-07-20T10:17:19;100819.91;;;23.87;43.72
30073;BME280;16897;52.422;13.678;2023-07-20T10:21:22;100798.25;;;23.73;43.72
30073;BME280;16897;52.422;13.678;2023-07-20T10:25:27;100814.22;;;23.90;43.24
30073;BME280;16897;52.422;13.678;2023-07-20T10:29:29;100823.25;;;23.89;43.74
30073;BME280;16897;52.422;13.678;2023-07-20T10:33:31;100818.75;;;23.89;43.59
30073;BME280;16897;52.422;13.678;2023-07-20T10:38:02;100803.91;;;23.78;43.17
30073;BME280;16897;52.422;13.678;2023-07-20T10:42:08;100829.59;;;23.88;43.04
30073;BME280;16897;52.422;13.678;2023-07-20T10:46:11;100799.94;;;23.58;43.32
30073;BME280;16897;52.422;13.678;2023-07-20T10:50:13;100791.75;;;23.51;43.25
30073;BME280;16897;52.422;13.678;2023-07-20T10:58:19;100821.63;;;23.71;43.16
30073;BME280;16897;52.422;13.678;2023-07-20T11:02:27;100820.72;;;23.71;43.43
30073;BME280;16897;52.422;13.678;2023-07-20T11:06:30;100834.91;;;23.96;43.01
30073;BME280;16897;52.422;13.678;2023-07-20T11:10:32;100791.25;;;23.80;42.96
30073;BME280;16897;52.422;13.678;2023-07-20T11:14:34;100815.69;;;24.08;42.93
30073;BME280;16897;52.422;13.678;2023-07-20T11:18:41;100835.03;;;24.11;42.80
30073;BME280;16897;52.422;13.678;2023-07-20T11:22:42;100830.38;;;24.13;42.96
30073;BME280;16897;52.422;13.678;2023-07-20T11:26:48;100839.69;;;24.08;42.95
30073;BME280;16897;52.422;13.678;2023-07-20T11:30:52;100838.22;;;24.06;42.94
30073;BME280;16897;52.422;13.678;2023-07-20T11:34:55;100824.22;;;24.04;43.21
30073;BME280;16897;52.422;13.678;2023-07-20T11:38:58;100838.69;;;24.18;42.64
30073;BME280;16897;52.422;13.678;2023-07-20T11:43:00;100843.00;;;24.27;42.69
30073;BME280;16897;52.422;13.678;2023-07-20T11:51:05;100839.47;;;24.35;42.84
30073;BME280;16897;52.422;13.678;2023-07-20T11:55:07;100838.81;;;24.33;42.85
30073;BME280;16897;52.422;13.678;2023-07-20T11:59:09;100857.66;;;24.39;42.84
30073;BME280;16897;52.422;13.678;2023-07-20T12:03:12;100855.97;;;24.38;43.01
30073;BME280;16897;52.422;13.678;2023-07-20T12:07:13;100818.84;;;24.20;42.83
30073;BME280;16897;52.422;13.678;2023-07-20T12:11:30;100848.81;;;24.39;42.65
30073;BME280;16897;52.422;13.678;2023-07-20T12:15:32;100843.16;;;24.34;42.95
30073;BME280;16897;52.422;13.678;2023-07-20T12:19:38;100845.81;;;24.42;42.69
30073;BME280;16897;52.422;13.678;2023-07-20T12:23:41;100853.97;;;24.48;42.38
30073;BME280;16897;52.422;13.678;2023-07-20T12:27:44;100845.50;;;24.45;42.64
30073;BME280;16897;52.422;13.678;2023-07-20T12:31:46;100822.16;;;24.31;42.72
30073;BME280;16897;52.422;13.678;2023-07-20T12:35:49;100836.97;;;24.49;42.61
30073;BME280;16897;52.422;13.678;2023-07-20T12:39:51;100833.94;;;24.53;42.46
30073;BME280;16897;52.422;13.678;2023-07-20T12:43:52;100843.44;;;24.55;42.83
30073;BME280;16897;52.422;13.678;2023-07-20T12:47:55;100851.25;;;24.65;42.89
30073;BME280;16897;52.422;13.678;2023-07-20T12:51:56;100845.41;;;24.61;42.60
30073;BME280;16897;52.422;13.678;2023-07-20T12:55:59;100816.91;;;24.54;42.34
30073;BME280;16897;52.422;13.678;2023-07-20T13:00:02;100837.53;;;24.68;42.66
30073;BME280;16897;52.422;13.678;2023-07-20T13:04:05;100823.06;;;24.54;42.16
30073;BME280;16897;52.422;13.678;2023-07-20T13:08:06;100853.41;;;24.69;42.57
30073;BME280;16897;52.422;13.678;2023-07-20T13:12:08;100850.25;;;24.66;42.40
30073;BME280;16897;52.422;13.678;2023-07-20T13:16:10;100835.78;;;24.52;42.32
30073;BME280;16897;52.422;13.678;2023-07-20T13:20:12;100855.75;;;24.64;42.30
30073;BME280;16897;52.422;13.678;2023-07-20T13:24:13;100840.59;;;24.57;42.24
30073;BME280;16897;52.422;13.678;2023-07-20T13:28:15;100840.75;;;24.63;42.23
30073;BME280;16897;52.422;13.678;2023-07-20T13:32:16;100842.03;;;24.67;42.34
30073;BME280;16897;52.422;13.678;2023-07-20T13:36:19;100831.31;;;24.76;42.50
30073;BME280;16897;52.422;13.678;2023-07-20T13:40:22;100810.78;;;24.76;42.01
30073;BME280;16897;52.422;13.678;2023-07-20T13:44:24;100843.59;;;24.93;42.27
30073;BME280;16897;52.422;13.678;2023-07-20T13:48:26;100780.94;;;24.72;41.97
30073;BME280;16897;52.422;13.678;2023-07-20T13:52:28;100808.81;;;25.01;42.16
30073;BME280;16897;52.422;13.678;2023-07-20T13:56:30;100816.09;;;25.15;42.07
30073;BME280;16897;52.422;13.678;2023-07-20T14:00:32;100819.16;;;25.27;42.16
30073;BME280;16897;52.422;13.678;2023-07-20T14:04:34;100807.59;;;25.35;42.28
30073;BME280;16897;52.422;13.678;2023-07-20T14:08:36;100774.22;;;25.31;42.17
30073;BME280;16897;52.422;13.678;2023-07-20T14:12:37;100798.72;;;25.57;41.75
30073;BME280;16897;52.422;13.678;2023-07-20T14:16:39;100777.50;;;25.56;41.85
30073;BME280;16897;52.422;13.678;2023-07-20T14:20:40;100762.47;;;25.55;41.45
30073;BME280;16897;52.422;13.678;2023-07-20T14:24:42;100792.47;;;25.80;41.84
30073;BME280;16897;52.422;13.678;2023-07-20T14:28:43;100798.72;;;25.95;41.28
30073;BME280;16897;52.422;13.678;2023-07-20T14:32:45;100770.03;;;25.81;41.37
30073;BME280;16897;52.422;13.678;2023-07-20T14:36:47;100781.63;;;25.96;41.35
30073;BME280;16897;52.422;13.678;2023-07-20T14:40:48;100801.00;;;26.13;41.44
30073;BME280;16897;52.422;13.678;2023-07-20T14:44:50;100794.81;;;26.13;41.31
30073;BME280;16897;52.422;13.678;2023-07-20T14:48:51;100800.09;;;26.21;41.51
30073;BME280;16897;52.422;13.678;2023-07-20T14:52:53;100779.03;;;26.18;41.25
30073;BME280;16897;52.422;13.678;2023-07-20T14:56:55;100774.97;;;26.22;41.01
30073;BME280;16897;52.422;13.678;2023-07-20T15:00:57;100777.19;;;26.33;41.17
30073;BME280;16897;52.422;13.678;2023-07-20T15:04:58;100772.72;;;26.40;40.94
30073;BME280;16897;52.422;13.678;2023-07-20T15:09:00;100786.00;;;26.48;40.91
30073;BME280;16897;52.422;13.678;2023-07-20T15:13:02;100783.63;;;26.54;40.90
30073;BME280;16897;52.422;13.678;2023-07-20T15:17:03;100771.63;;;26.49;41.01
30073;BME280;16897;52.422;13.678;2023-07-20T15:21:05;100777.53;;;26.60;40.78
30073;BME280;16897;52.422;13.678;2023-07-20T15:25:07;100787.50;;;26.66;40.58
30073;BME280;16897;52.422;13.678;2023-07-20T15:29:09;100774.09;;;26.66;40.84
30073;BME280;16897;52.422;13.678;2023-07-20T15:33:11;100780.47;;;26.65;40.65
30073;BME280;16897;52.422;13.678;2023-07-20T15:37:13;100757.88;;;26.53;40.44
30073;BME280;16897;52.422;13.678;2023-07-20T15:41:14;100774.28;;;26.64;40.65
30073;BME280;16897;52.422;13.678;2023-07-20T15:45:16;100766.81;;;26.60;40.11
30073;BME280;16897;52.422;13.678;2023-07-20T15:49:17;100778.38;;;26.60;40.09
30073;BME280;16897;52.422;13.678;2023-07-20T15:53:19;100775.28;;;26.48;39.79
30073;BME280;16897;52.422;13.678;2023-07-20T15:57:20;100769.22;;;26.40;40.00
30073;BME280;16897;52.422;13.678;2023-07-20T16:01:22;100781.03;;;26.45;40.15
30073;BME280;16897;52.422;13.678;2023-07-20T16:05:23;100783.16;;;26.35;39.88
30073;BME280;16897;52.422;13.678;2023-07-20T16:09:24;100771.28;;;26.23;40.03
30073;BME280;16897;52.422;13.678;2023-07-20T16:13:26;100755.06;;;26.10;39.65
30073;BME280;16897;52.422;13.678;2023-07-20T16:17:27;100788.94;;;26.17;39.56
30073;BME280;16897;52.422;13.678;2023-07-20T16:21:29;100774.88;;;26.00;39.68
30073;BME280;16897;52.422;13.678;2023-07-20T16:25:30;100776.09;;;25.98;39.43
30073;BME280;16897;52.422;13.678;2023-07-20T16:29:31;100787.63;;;25.98;39.61
30073;BME280;16897;52.422;13.678;2023-07-20T16:33:33;100751.13;;;25.68;39.65
30073;BME280;16897;52.422;13.678;2023-07-20T16:37:35;100785.75;;;25.84;39.51
30073;BME280;16897;52.422;13.678;2023-07-20T16:41:37;100779.19;;;25.72;39.59
30073;BME280;16897;52.422;13.678;2023-07-20T16:45:38;100795.22;;;25.72;39.64
30073;BME280;16897;52.422;13.678;2023-07-20T16:49:39;100798.06;;;25.70;39.23
30073;BME280;16897;52.422;13.678;2023-07-20T16:53:41;100793.47;;;25.64;39.38
30073;BME280;16897;52.422;13.678;2023-07-20T16:57:43;100788.03;;;25.57;38.99
30073;BME280;16897;52.422;13.678;2023-07-20T17:01:44;100788.72;;;25.51;39.27
30073;BME280;16897;52.422;13.678;2023-07-20T17:05:45;100779.94;;;25.43;39.22
30073;BME280;16897;52.422;13.678;2023-07-20T17:09:47;100791.09;;;25.46;39.26
30073;BME280;16897;52.422;13.678;2023-07-20T17:13:50;100782.81;;;25.41;39.40
30073;BME280;16897;52.422;13.678;2023-07-20T17:17:51;100777.50;;;25.33;39.14
30073;BME280;16897;52.422;13.678;2023-07-20T17:21:53;100789.88;;;25.34;38.90
30073;BME280;16897;52.422;13.678;2023-07-20T17:25:55;100807.06;;;25.39;39.05
30073;BME280;16897;52.422;13.678;2023-07-20T17:29:56;100812.09;;;25.34;38.92
30073;BME280;16897;52.422;13.678;2023-07-20T17:34:01;100781.00;;;25.10;39.04
30073;BME280;16897;52.422;13.678;2023-07-20T17:38:03;100800.88;;;25.16;39.12
30073;BME280;16897;52.422;13.678;2023-07-20T17:42:05;100798.72;;;25.11;39.27
30073;BME280;16897;52.422;13.678;2023-07-20T17:46:06;100802.41;;;25.10;38.86
30073;BME280;16897;52.422;13.678;2023-07-20T17:50:08;100805.25;;;25.09;39.04
30073;BME280;16897;52.422;13.678;2023-07-20T17:54:13;100794.63;;;25.01;38.99
30073;BME280;16897;52.422;13.678;2023-07-20T17:58:14;100800.13;;;24.99;38.77
30073;BME280;16897;52.422;13.678;2023-07-20T18:02:17;100809.81;;;25.00;38.73
30073;BME280;16897;52.422;13.678;2023-07-20T18:06:19;100811.50;;;25.01;39.12
30073;BME280;16897;52.422;13.678;2023-07-20T18:10:20;100784.06;;;24.76;39.18
30073;BME280;16897;52.422;13.678;2023-07-20T18:14:22;100817.09;;;24.83;38.78
30073;BME280;16897;52.422;13.678;2023-07-20T18:18:24;100820.94;;;24.81;39.01
30073;BME280;16897;52.422;13.678;2023-07-20T18:22:25;100813.66;;;24.75;39.13
30073;BME280;16897;52.422;13.678;2023-07-20T18:26:27;100810.03;;;24.59;39.11
30073;BME280;16897;52.422;13.678;2023-07-20T18:30:29;100819.06;;;24.58;38.73
30073;BME280;16897;52.422;13.678;2023-07-20T18:34:34;100831.75;;;24.56;38.58
30073;BME280;16897;52.422;13.678;2023-07-20T18:38:35;100809.78;;;24.29;39.04
30073;BME280;16897;52.422;13.678;2023-07-20T18:42:37;100821.84;;;24.25;38.81
30073;BME280;16897;52.422;13.678;2023-07-20T18:46:39;100820.69;;;24.20;39.07
30073;BME280;16897;52.422;13.678;2023-07-20T18:50:40;100822.19;;;24.06;38.59
30073;BME280;16897;52.422;13.678;2023-07-20T18:54:42;100848.91;;;24.14;38.57
30073;BME280;16897;52.422;13.678;2023-07-20T18:58:44;100854.88;;;24.08;39.05
30073;BME280;16897;52.422;13.678;2023-07-20T19:02:46;100851.88;;;24.03;39.03
30073;BME280;16897;52.422;13.678;2023-07-20T19:06:47;100852.91;;;23.94;38.99
30073;BME280;16897;52.422;13.678;2023-07-20T19:10:48;100833.94;;;23.80;38.47
30073;BME280;16897;52.422;13.678;2023-07-20T19:14:50;100854.94;;;23.83;38.92
30073;BME280;16897;52.422;13.678;2023-07-20T19:18:51;100837.44;;;23.73;38.66
30073;BME280;16897;52.422;13.678;2023-07-20T19:22:53;100866.94;;;23.79;39.04
30073;BME280;16897;52.422;13.678;2023-07-20T19:26:54;100858.44;;;23.76;38.87
30073;BME280;16897;52.422;13.678;2023-07-20T19:30:55;100842.94;;;23.55;38.65
30073;BME280;16897;52.422;13.678;2023-07-20T19:34:57;100870.56;;;23.62;38.55
30073;BME280;16897;52.422;13.678;2023-07-20T19:39:01;100877.88;;;23.60;38.95
30073;BME280;16897;52.422;13.678;2023-07-20T19:43:03;100860.72;;;23.38;38.86
30073;BME280;16897;52.422;13.678;2023-07-20T19:47:04;100880.56;;;23.52;38.63
30073;BME280;16897;52.422;13.678;2023-07-20T19:51:06;100893.72;;;23.53;38.84
30073;BME280;16897;52.422;13.678;2023-07-20T19:55:09;100883.72;;;23.39;38.65
30073;BME280;16897;52.422;13.678;2023-07-20T19:59:11;100871.69;;;23.27;38.81
30073;BME280;16897;52.422;13.678;2023-07-20T20:03:14;100885.50;;;23.22;38.59
30073;BME280;16897;52.422;13.678;2023-07-20T20:07:15;100862.16;;;23.00;38.72
30073;BME280;16897;52.422;13.678;2023-07-20T20:11:17;100865.56;;;22.84;38.84
30073;BME280;16897;52.422;13.678;2023-07-20T20:15:19;100882.38;;;22.84;38.63
30073;BME280;16897;52.422;13.678;2023-07-20T20:19:20;100894.50;;;22.79;38.77
30073;BME280;16897;52.422;13.678;2023-07-20T20:23:22;100897.31;;;22.69;38.74
30073;BME280;16897;52.422;13.678;2023-07-20T20:27:23;100899.25;;;22.59;38.46
30073;BME280;16897;52.422;13.678;2023-07-20T20:31:25;100878.47;;;22.28;38.69
30073;BME280;16897;52.422;13.678;2023-07-20T20:35:26;100896.78;;;22.31;38.79
30073;BME280;16897;52.422;13.678;2023-07-20T20:39:28;100902.69;;;22.25;38.74
30073;BME280;16897;52.422;13.678;2023-07-20T20:43:29;100906.13;;;22.17;39.01
30073;BME280;16897;52.422;13.678;2023-07-20T20:47:33;100897.50;;;21.97;38.73
30073;BME280;16897;52.422;13.678;2023-07-20T20:51:36;100894.31;;;21.94;38.80
30073;BME280;16897;52.422;13.678;2023-07-20T20:55:38;100912.63;;;21.97;39.05
30073;BME280;16897;52.422;13.678;2023-07-20T20:59:39;100912.75;;;21.95;39.04
30073;BME280;16897;52.422;13.678;2023-07-20T21:03:42;100904.50;;;21.80;39.02
30073;BME280;16897;52.422;13.678;2023-07-20T21:07:44;100903.13;;;21.76;39.09
30073;BME280;16897;52.422;13.678;2023-07-20T21:11:46;100878.53;;;21.56;39.20